South Saint Paul, MN

6:15 PM CDT on October 30, 2014 (GMT -0500)
West Saint Paul | Change Station
CLOSE
Current Station
Personal Weather Station
Location: West Saint Paul, MN
Elevation: 961 ft
Nearby Weather Stations

Elev 961 ft 44.89 °N, 93.07 °W | Updated 14 seconds ago

Overcast
Overcast
43.2 °F
Feels Like 37 °F
N
12.1
Wind Variable Wind from SE
Gusts 13.0 mph

Today
High -- | Low -- °F
--% Chance of Precip.
Yesterday
High -- | Low -- °F
Precip. -- in
7:47 AM 6:03 PM
Waxing Crescent, 48% visible
Pressure 30.16 in
Visibility 10.0 miles
Clouds Mostly Cloudy 2500 ft
Overcast 3000 ft
Windchill 37 °F
Dew Point 35 °F
Humidity 72%
Rainfall 0.00 in
Snow Depth Not available.
UV 0 out of 12
Pollen .10 out of 12
Air Quality Not available.
Flu Activity Not available.
METAR KSGS 302250Z AUTO 35013G21KT 10SM BKN025 OVC030 07/02 A3016 RMK AO2 T00720015

More Conditions Fewer Conditions

Pressure 30.16 in
Visibility 10.0 miles
Clouds Mostly Cloudy 2500 ft
Overcast 3000 ft
Windchill 37 °F
Dew Point 35 °F
Humidity 72%
Rainfall 0.00 in
Snow Depth Not available.
UV 0 out of 12
Pollen .10 out of 12
Air Quality Not available.
Flu Activity Not available.
METAR KSGS 302250Z AUTO 35013G21KT 10SM BKN025 OVC030 07/02 A3016 RMK AO2 T00720015

More Conditions Fewer Conditions

10-Day Weather Forecast

Almanac

Astronomy

Oct. 30, 2014 Rise Set
Actual Time
Civil Twilight
Nautical Twilight
Astronomical Twilight
Moon
Length of Visible Light
Length of Day
Tomorrow will be .
, % of the Moon is Illuminated

Today's Extremes

State Highs State Lows

Community

WunderPhotos

Upload Photos

1,766,492 photos uploaded!

WunderBlogs® & News

Nearby

Air Quality

  Air Quality AQ Index Pollutant
Not available.

Snow Depth

Station Depth Elevation

Earthquake Activity

City Distance Mag. Time & Date
Minimum magnitude displayed is 2.5.

Coastal Water Temperatures

Place Temperature

Nearby Weather Stations